Accueil
METAR-TAF:

METAR-TAF

Aéroports :

Shillong, Inde

latitude: 25-42-13N, longitude: 091-58-43E, altitude: 887 m

Observation

Le bulletin a été fait il y a 15 heures et 3 minutes, à 08:00 UTC
Vent 4 kt de ouest/nord-ouest
Température 17°C
Humidité 52%
Pression 1018 hPa
Visibilité: 5000 m
Quelques nuages à une hauteur de 2000 ft
brume sèche

METAR: VEBI 220800Z 30004KT 5000 HZ FEW020 17/07 Q1018

Heure: 04:33 (23:03 UTC)

Prévision

Le bulletin a été fait il y a 15 heures et 3 minutes, à 08:00 UTC
Prévision valable du 22 à 09 UTC au 22 à 18 UTC
Vent 5 kt de ouest/nord-ouest
Visibilité: 5000 m
Quelques nuages à une hauteur de 2000 ft
brume sèche
Evoluant progressivement
du 22 à 13 UTC au 22 à 15 UTC
Vent kt de nord
Visibilité: 3000 m
Quelques nuages à une hauteur de 1800 ft
Nuages épars à une hauteur de 10000 ft
brume

TAF: VEBI 220800Z 2209/2218 30005KT 5000 HZ FEW020 BECMG 2213/2215 00000KT 3000 BR FEW018 SCT100

Observations et prévisions météorologiques de plus de 4000 aéroports (messages METAR et TAF).

Les stations disponibles sont représentées par des disques jaunes et rouges sur la carte.

Passer la souris dessus pour voir le nom de la station.

Cliquer dessus pour voir les observations et prévisions météorologiques.

Pour changer de carte: cliquez sur les boutons verts avec une croix noire pour zoomer, sur le bouton vert avec un tiret pour effectuer un zoom arrière, ou sur les flèches vertes pour les cartes adjacentes.


METAR-TAF: